Historyczne dane pomiarowe

Dodano dane terminowe – wersja testowa.

Dane z okresu 1951-2019

Wersja bazy: 1.34 [2019-03-16, lista zmian], aktualizacja planowana na 2019-04-15

Dane meteo z obszaru Polski uzyskane na podstawie danych udostępnionych przez Instytut Meteorologii i Gospodarki Wodnej – Państwowy Instytut Badawczy.

 

Wybierz Datę:    

       

TemperaturaWilgotnośćWiatrCiśnienieOpadyŚniegCzas trwania zjawisk
 Stacja t tx tn tng RH VA  wxwx mslp ppp RRR   cm mm wxwxwxwxwxwxwx
1994-08-14 14.2 19.3 9.2 8.1 68.8- 3.3 4.3---- 0.0------------
1994-08-13 17.1 22.9 15.1 14.1 81.5- 7.3 7.0---- 6.2------------
1994-08-12 16.7 21.9 13.4 10.1 86.0- 7.0 4.0---- 0.5------------
1994-08-11 17.7 23.9 16.6 12.6 87.8- 7.3 3.0---- 4.0------------
1994-08-10 19.3 27.0 12.7 10.6 69.0- 3.0 1.7---- 0.0------------
1994-08-09 18.8 25.1 17.8 15.1 95.0- 8.0 2.3---- 6.0------------
1994-08-08 22.4 28.0 18.6 17.6 74.8- 4.0 2.0---- 6.7------------
1994-08-07 25.2 31.5 19.6 15.6 65.3- 5.7 3.0---- 0.6------------
1994-08-06 24.2 33.0 14.2 10.6 54.3- 1.3 2.0---- 0.0------------
1994-08-05 23.1 31.0 15.6 13.6 63.0- 3.0 1.0---- 0.0------------
1994-08-04 23.8 30.0 18.6 17.6 71.8- 5.7 2.3---- 0.0------------
1994-08-03 23.7 30.5 18.1 16.6 74.8- 4.3 3.7---- 2.0------------
1994-08-02 23.8 32.4 17.6 15.6 76.0- 6.7 1.3---- 10.0------------
1994-08-01 25.7 35.4 17.1 12.6 57.5- 1.7 1.0---- 0.0------------
1994-07-31 28.7 36.9 16.6 13.1 50.5- 0.0 1.0---- 0.0------------
1994-07-30 26.7 35.7 16.1 12.1 50.8- 0.7 0.0---- 0.0------------
1994-07-29 24.0 34.4 15.1 10.6 51.0- 1.0 1.0---- 0.0------------
1994-07-28 25.6 34.0 14.7 11.1 55.0- 1.7 1.0---- 0.0------------
1994-07-27 23.9 34.4 15.1 12.1 54.8- 2.3 2.3---- 0.0------------
1994-07-26 24.2 33.5 14.2 10.1 52.3- 1.3 1.7---- 0.0------------
1994-07-25 24.2 32.0 12.2 8.1 52.5- 1.0 2.3---- 0.0------------
1994-07-24 23.8 30.5 12.2 10.2 53.3- 1.7 2.3---- 0.0------------
1994-07-23 22.9 29.5 11.7 7.6 57.3- 3.0 1.0---- 0.0------------
1994-07-22 20.4 28.5 9.7 7.1 54.3- 0.7 2.7---- 0.0------------
1994-07-21 19.7 28.0 9.7 5.6 54.5- 0.0 2.0---- 0.0------------
1994-07-20 17.6 24.9 9.2 5.1 53.5- 0.3 2.0---- 0.0------------
1994-07-19 18.5 24.4 13.2 10.1 68.5- 4.3 2.7---- 0.0------------
1994-07-18 20.8 27.5 15.1 10.2 78.0- 4.3 3.0---- 0.0------------
1994-07-17 21.7 29.0 17.6 16.1 77.8- 6.0 2.3---- 1.0------------
1994-07-16 23.2 30.5 14.7 13.6 65.8- 4.7 2.3---- 0.3------------
1994-07-15 22.5 28.5 13.7 10.6 68.0- 1.3 2.7---- 0.0------------
1994-07-14 22.0 30.0 13.2 10.6 67.5- 3.0 2.3---- 0.0------------
1994-07-13 21.5 29.0 13.2 9.6 66.5- 2.0 2.0---- 0.0------------
1994-07-12 20.8 27.0 12.7 12.1 71.5- 2.3 2.7---- 0.0------------
1994-07-11 18.4 25.9 13.2 11.1 76.0- 6.7 3.0---- 0.0------------
1994-07-10 16.0 22.9 11.8 11.6 78.0- 4.7 3.3---- 0.0------------
1994-07-09 14.4 15.8 13.2 11.1 89.8- 7.3 4.0---- 22.0------------
1994-07-08 16.4 20.9 14.2 13.6 75.3- 4.7 3.7---- 0.0------------
1994-07-07 19.7 27.5 11.2 7.1 65.0- 3.3 3.0---- 1.2------------
1994-07-06 18.8 24.9 10.7 6.1 64.0- 1.3 1.0---- 0.0------------
1994-07-05 21.0 28.0 14.2 13.1 56.5- 4.7 4.7---- 0.8------------
1994-07-04 21.1 29.5 10.2 5.6 57.5- 1.0 1.7---- 0.0------------
1994-07-03 19.7 27.5 8.7 3.1 55.8- 0.3 1.3---- 0.0------------
1994-07-02 18.1 24.9 8.2 5.1 52.5- 0.3 1.7---- 0.0------------
1994-07-01 18.1 24.4 12.2 7.1 67.0- 0.7 3.0---- 0.0------------
1994-06-30 22.5 29.0 17.6 14.6 72.3- 4.0 3.7---- 0.0------------
1994-06-29 24.7 31.5 15.6 11.6 64.5- 0.7 2.0---- 0.0------------
1994-06-28 24.3 30.5 16.6 14.2 64.5- 2.0 1.7---- 0.0------------
1994-06-27 24.9 32.0 16.1 11.6 65.8- 1.3 2.7---- 0.0------------
1994-06-26 20.7 29.0 10.2 5.1 65.3- 0.0 2.3---- 0.0------------
1994-06-25 15.9 22.4 4.6 1.5 62.5- 0.0 2.7---- 0.0------------
1994-06-24 13.8 19.8 6.1 2.5 60.3- 0.0 4.7---- 0.0------------
1994-06-23 17.7 21.1 15.6 13.1 59.5- 0.7 6.3---- 0.0------------
1994-06-22 17.8 26.5 8.2 3.6 71.0- 3.3 2.7---- 0.0------------
1994-06-21 16.5 20.9 6.6 1.5 67.8- 0.7 1.7---- 0.0------------
1994-06-20 16.0 20.9 11.2 7.6 73.5- 4.3 4.0---- 0.0------------
1994-06-19 16.6 23.4 11.2 9.6 73.8- 3.7 3.0---- 0.0------------
1994-06-18 12.3 18.3 4.1 1.1 73.8- 4.0 2.3---- 5.0------------
1994-06-17 11.0 14.0 8.7 6.1 75.0- 4.3 4.3---- 0.0------------
1994-06-16 10.0 15.8 7.6 2.0 82.5- 5.3 4.7---- 8.0------------
576.1 ms

 

Źródłem pochodzenia danych jest Instytut Meteorologii i Gospodarki Wodnej – Państwowy Instytut Badawczy. Dane Instytutu Meteorologii i Gospodarki Wodnej – Państwowego Instytutu Badawczego zostały przetworzone.

Dane źródłowe można odnaleźć na stronie https://dane.imgw.pl